Glade Hill, Virginia
Current Conditions -  °F | °C
As of 5:54 PM on Monday 22 Dec 2014 (Local Time) from KROA Reporting Station
Drizzle Drizzle  
Wind Chill: 32°   Ceiling: 900
Heat Index: 36°   Visibility: 1.5mi
Dew Point: 34°   Wind: 5mph
Humidity: 93%   Direction: 360°N
Pressure: 30.1"   Gusts: NA
Location:  37.0073°N, 79.7681°W
Report Text: KROA 222254Z 36004KT 1 1/2SM -DZ BR FEW004 BKN009 OVC013 02/01 A3010 RMK AO2 SFC VIS 2 1/2 SLP201 P0001 T00220011
Loading
Personal Weather Stations






























Interactive Weather Map New forecast layout! Learn more

10-Day Weather Forecast

Advertisements
Track Severe Weather on mobile